world map with LIBH marked

LIBH - Location

This information may not be accurate or current and is not valid for navigation or flight planning. No warranty of fitness for any purpose is made or implied.

flag of Italy

Donate via PayPal

Additional information is available on the NEW Great Circle Mapper

Location
City:  Marina di Ginosa, Italy
ICAO:LIBH

Details
Latitude:40°26'N (40.433)
Longitude:16°53'E (16.883)
Elevation:39 ft (12 m)

Time
Timezone:UTC+1 (DST+4)
Local Time:

Weather
METAR:LIBH  041355Z 02011KT 6000 RA OVC015 12/11 Q1013 RETS RMK OVC QUK 2 QUL 1 S VIS MAR 6 KM VIS MIN 6000

Related Locations
Nearby:
Farthest:CHT: 11717 mi / 18857 km
Waitangi [Tuuta], CIT, NZ

Find:

   beyond  
but within

Other Information
Maps:
Sources:

  


 


Great Circle Mapper   Great Circle Mapper
Great Circle Mapper FAQ   Great Circle Mapper FAQ
  Karl's Home Page
KLSē   KLSē Home
   GC on Facebook
Airlines of the World   Airlines of the World
Donate via PayPal


Copyright © 2004-2020, Karl L. Swartz. All rights reserved.
All trademarks mentioned herein belong to their respective owners.

Please see credits for attribution and copyright information.

Karl Swartz <karl@kls2.com>
  Powered by FreeBSD
Valid HTML 4.01!
Labeled with ICRA
hCard Microformat
Geo Microformat